createdAt,value
2017-08-30T00:00:55.263Z,11.07
2017-08-30T00:03:24.551Z,10.13
2017-08-30T00:05:53.950Z,9.90
2017-08-30T00:08:23.442Z,9.83
2017-08-30T00:10:52.775Z,11.10
2017-08-30T00:13:23.320Z,9.67
2017-08-30T00:15:52.602Z,10.17
2017-08-30T00:18:21.853Z,9.90
2017-08-30T00:20:51.130Z,10.47
2017-08-30T00:23:20.431Z,10.17
2017-08-30T00:26:07.237Z,10.80
2017-08-30T00:31:43.229Z,10.57
2017-08-30T00:34:12.510Z,11.07
2017-08-30T00:36:41.761Z,9.93
2017-08-30T00:39:11.109Z,10.90
2017-08-30T00:41:40.320Z,10.77
2017-08-30T00:44:09.591Z,10.00
2017-08-30T00:46:39.670Z,11.70
2017-08-30T00:49:09.015Z,10.50
2017-08-30T00:51:38.315Z,10.97
2017-08-30T00:54:07.617Z,9.93
2017-08-30T00:56:36.918Z,11.37
2017-08-30T00:59:06.240Z,9.70
2017-08-30T01:01:35.485Z,10.43
2017-08-30T01:04:05.502Z,10.13
2017-08-30T01:06:34.761Z,10.73
2017-08-30T01:09:04.014Z,10.90
2017-08-30T01:11:33.312Z,11.07
2017-08-30T01:14:02.573Z,10.17
2017-08-30T01:16:32.001Z,9.67
2017-08-30T01:19:01.280Z,11.70
2017-08-30T01:21:30.535Z,10.80
2017-08-30T01:23:59.799Z,10.00
2017-08-30T01:26:29.753Z,9.60
2017-08-30T01:28:59.026Z,10.53
2017-08-30T01:31:28.297Z,10.57
2017-08-30T01:33:57.661Z,9.77
2017-08-30T01:36:27.546Z,10.90
2017-08-30T01:38:56.971Z,10.20
2017-08-30T01:41:26.216Z,10.97
2017-08-30T01:43:55.726Z,9.73
2017-08-30T01:46:25.020Z,11.10
2017-08-30T01:48:54.470Z,11.47
2017-08-30T01:51:23.753Z,11.57
2017-08-30T01:53:53.078Z,11.03
2017-08-30T01:56:22.358Z,11.00
2017-08-30T01:58:51.708Z,11.23
2017-08-30T02:01:21.037Z,10.67
2017-08-30T02:03:50.290Z,10.30
2017-08-30T02:06:19.563Z,11.20
2017-08-30T02:08:48.924Z,11.67
2017-08-30T02:11:19.250Z,10.87
2017-08-30T02:13:48.750Z,10.90
2017-08-30T02:16:18.068Z,10.70
2017-08-30T02:18:47.623Z,9.67
2017-08-30T02:21:17.054Z,11.17
2017-08-30T02:23:46.320Z,11.90
2017-08-30T02:26:15.656Z,11.60
2017-08-30T02:28:44.915Z,10.97
2017-08-30T02:31:14.214Z,11.50
2017-08-30T02:33:43.468Z,10.97
2017-08-30T02:36:12.718Z,11.53
2017-08-30T02:38:42.163Z,10.43
2017-08-30T02:41:11.470Z,11.53
2017-08-30T02:43:40.776Z,11.30
2017-08-30T02:46:10.023Z,11.70
2017-08-30T02:48:39.306Z,12.00
2017-08-30T02:51:08.559Z,10.87
2017-08-30T02:53:38.003Z,10.77
2017-08-30T02:56:07.256Z,11.70
2017-08-30T02:58:36.506Z,10.27
2017-08-30T03:01:05.790Z,12.67
2017-08-30T03:03:35.066Z,11.40
2017-08-30T03:06:04.334Z,10.33
2017-08-30T03:08:33.593Z,12.47
2017-08-30T03:11:02.858Z,11.93
2017-08-30T03:13:32.178Z,10.77
2017-08-30T03:16:01.495Z,12.80
2017-08-30T03:18:30.773Z,11.30
2017-08-30T03:21:00.115Z,10.50
2017-08-30T03:23:29.410Z,11.73
2017-08-30T03:25:58.708Z,11.43
2017-08-30T03:28:27.998Z,12.27
2017-08-30T03:30:57.259Z,11.40
2017-08-30T03:33:26.598Z,10.17
2017-08-30T03:35:55.946Z,12.90
2017-08-30T03:38:25.212Z,10.03
2017-08-30T03:40:54.513Z,11.30
2017-08-30T03:43:23.768Z,13.77
2017-08-30T03:45:53.046Z,10.37
2017-08-30T03:48:22.289Z,11.33
2017-08-30T03:50:51.722Z,10.30
2017-08-30T03:53:21.038Z,11.50
2017-08-30T03:55:50.294Z,11.30
2017-08-30T03:58:19.850Z,10.90
2017-08-30T04:00:49.110Z,13.10
2017-08-30T04:03:18.380Z,11.50
2017-08-30T04:05:47.728Z,11.87
2017-08-30T04:08:16.969Z,10.63
2017-08-30T04:10:46.251Z,10.43
2017-08-30T04:13:15.513Z,12.70
2017-08-30T04:15:44.787Z,11.97
2017-08-30T04:18:14.055Z,11.43
2017-08-30T04:20:43.370Z,12.20
2017-08-30T04:23:12.658Z,11.37
2017-08-30T04:25:41.942Z,12.00
2017-08-30T04:28:11.228Z,11.90
2017-08-30T04:30:40.485Z,10.93
2017-08-30T04:33:09.860Z,11.30
2017-08-30T04:35:39.272Z,11.03
2017-08-30T04:38:08.510Z,10.90
2017-08-30T04:40:37.788Z,11.60
2017-08-30T04:43:07.051Z,11.00
2017-08-30T04:45:36.395Z,11.30
2017-08-30T04:48:05.670Z,10.73
2017-08-30T04:50:35.154Z,11.63
2017-08-30T04:53:04.418Z,13.27
2017-08-30T04:55:33.686Z,11.23
2017-08-30T04:58:03.075Z,10.37
2017-08-30T05:00:32.320Z,11.10
2017-08-30T05:03:01.602Z,10.90
2017-08-30T05:05:30.999Z,11.30
2017-08-30T05:08:00.238Z,9.17
2017-08-30T05:10:29.530Z,9.53
2017-08-30T05:12:58.759Z,10.57
2017-08-30T05:15:28.030Z,9.30
2017-08-30T05:17:57.302Z,10.67
2017-08-30T05:20:26.592Z,9.53
2017-08-30T05:22:56.079Z,9.70
2017-08-30T05:25:25.319Z,9.30
2017-08-30T05:27:54.595Z,11.10
2017-08-30T05:30:23.883Z,9.20
2017-08-30T05:32:53.305Z,10.73
2017-08-30T05:35:22.574Z,9.80
2017-08-30T05:37:51.822Z,9.70
2017-08-30T05:40:21.082Z,9.57
2017-08-30T05:42:51.086Z,9.60
2017-08-30T05:45:20.328Z,9.73
2017-08-30T05:47:49.678Z,9.93
2017-08-30T05:50:18.924Z,9.83
2017-08-30T05:52:48.194Z,9.40
2017-08-30T05:55:17.442Z,9.03
2017-08-30T05:57:46.702Z,9.27
2017-08-30T06:00:16.034Z,8.73
2017-08-30T06:02:46.061Z,8.70
2017-08-30T06:05:15.322Z,8.40
2017-08-30T06:07:44.605Z,8.30
2017-08-30T06:10:13.869Z,8.20
2017-08-30T06:12:43.151Z,7.63
2017-08-30T06:15:12.598Z,7.33
2017-08-30T06:17:41.940Z,7.40
2017-08-30T06:20:11.206Z,7.37
2017-08-30T06:22:40.580Z,6.60
2017-08-30T06:25:09.837Z,6.87
2017-08-30T06:27:39.130Z,7.43
2017-08-30T06:30:08.411Z,6.63
2017-08-30T06:32:37.661Z,6.17
2017-08-30T06:35:06.898Z,6.20
2017-08-30T06:37:36.186Z,6.37
2017-08-30T06:40:05.441Z,6.50
2017-08-30T06:42:34.668Z,6.10
2017-08-30T06:45:04.053Z,6.43
2017-08-30T06:47:33.559Z,6.43
2017-08-30T06:50:02.850Z,6.13
2017-08-30T06:52:32.113Z,6.23
2017-08-30T06:55:01.411Z,5.70
2017-08-30T06:57:30.765Z,5.73
2017-08-30T07:00:00.020Z,6.60
2017-08-30T07:02:29.277Z,6.27
2017-08-30T07:04:58.538Z,6.27
2017-08-30T07:07:27.834Z,6.03
2017-08-30T07:09:57.179Z,6.57
2017-08-30T07:12:26.769Z,5.10
2017-08-30T07:14:56.034Z,6.07
2017-08-30T07:17:25.568Z,5.80
2017-08-30T07:19:54.897Z,6.20
2017-08-30T07:22:24.202Z,5.83
2017-08-30T07:24:53.872Z,5.53
2017-08-30T07:27:23.120Z,6.77
2017-08-30T07:29:52.379Z,6.37
2017-08-30T07:32:22.426Z,6.70
2017-08-30T07:34:51.707Z,7.23
2017-08-30T07:37:20.970Z,6.50
2017-08-30T07:39:50.812Z,7.53
2017-08-30T07:42:20.094Z,8.43
2017-08-30T07:44:49.453Z,8.00
2017-08-30T07:47:18.738Z,7.40
2017-08-30T07:49:47.986Z,6.93
2017-08-30T07:52:17.430Z,6.73
2017-08-30T07:54:46.691Z,8.07
2017-08-30T07:57:15.955Z,6.60
2017-08-30T07:59:45.413Z,7.23
2017-08-30T08:02:14.730Z,7.90
2017-08-30T08:04:44.048Z,8.70
2017-08-30T08:07:13.299Z,8.00
2017-08-30T08:09:42.991Z,7.10
2017-08-30T08:12:12.252Z,10.47
2017-08-30T08:14:42.219Z,8.47
2017-08-30T08:17:11.503Z,10.27
2017-08-30T08:19:41.042Z,9.03
2017-08-30T08:22:10.531Z,8.40
2017-08-30T08:24:39.826Z,8.70
2017-08-30T08:27:09.105Z,8.63
2017-08-30T08:29:38.741Z,9.23
2017-08-30T08:32:07.979Z,7.80
2017-08-30T08:34:37.290Z,9.30
2017-08-30T08:37:06.548Z,9.13
2017-08-30T08:39:35.908Z,9.70
2017-08-30T08:42:05.159Z,8.80
2017-08-30T08:44:34.421Z,8.80
2017-08-30T08:47:03.851Z,8.53
2017-08-30T08:49:33.432Z,10.50
2017-08-30T08:52:02.751Z,8.73
2017-08-30T08:54:32.846Z,9.70
2017-08-30T08:57:02.172Z,9.37
2017-08-30T08:59:31.436Z,8.40
2017-08-30T09:02:00.780Z,8.40
2017-08-30T09:04:30.023Z,8.37
2017-08-30T09:06:59.786Z,10.33
2017-08-30T09:09:29.042Z,8.97
2017-08-30T09:11:58.385Z,8.10
2017-08-30T09:14:27.721Z,9.10
2017-08-30T09:16:57.620Z,8.13
2017-08-30T09:19:26.898Z,8.67
2017-08-30T09:21:56.742Z,9.10
2017-08-30T09:24:26.135Z,9.70
2017-08-30T09:26:55.401Z,9.70
2017-08-30T09:29:24.641Z,9.90
2017-08-30T09:31:54.017Z,9.60
2017-08-30T09:34:23.530Z,9.13
2017-08-30T09:36:52.794Z,8.80
2017-08-30T09:39:22.047Z,8.73
2017-08-30T09:41:51.310Z,9.10
2017-08-30T09:44:20.560Z,8.50
2017-08-30T09:46:50.042Z,8.57
2017-08-30T09:49:19.334Z,8.80
2017-08-30T09:51:48.635Z,8.83
2017-08-30T09:54:18.104Z,7.40
2017-08-30T09:56:47.543Z,8.70
2017-08-30T09:59:16.964Z,8.37
2017-08-30T10:01:46.275Z,9.13
2017-08-30T10:04:16.315Z,8.73
2017-08-30T10:06:45.576Z,9.90
2017-08-30T10:09:14.894Z,8.40
2017-08-30T10:11:44.286Z,8.93
2017-08-30T10:14:13.566Z,7.80
2017-08-30T10:16:42.816Z,9.03
2017-08-30T10:19:12.086Z,9.30
2017-08-30T10:21:41.345Z,9.07
2017-08-30T10:24:11.136Z,8.00
2017-08-30T10:26:40.429Z,7.27
2017-08-30T10:29:09.738Z,7.17
2017-08-30T10:31:39.171Z,7.30
2017-08-30T10:34:08.513Z,8.23
2017-08-30T10:36:37.883Z,8.50
2017-08-30T10:39:07.765Z,7.83
2017-08-30T10:41:37.033Z,7.63
2017-08-30T10:44:06.290Z,7.53
2017-08-30T10:46:35.966Z,8.40
2017-08-30T10:49:05.430Z,6.77
2017-08-30T10:51:34.697Z,7.70
2017-08-30T10:54:03.974Z,6.53
2017-08-30T10:56:33.934Z,8.60
2017-08-30T10:59:03.234Z,7.90
2017-08-30T11:01:32.550Z,8.70
2017-08-30T11:04:01.949Z,7.03
2017-08-30T11:06:31.277Z,7.23
2017-08-30T11:09:00.552Z,6.67
2017-08-30T11:11:29.807Z,7.13
2017-08-30T11:13:59.067Z,6.40
2017-08-30T11:16:28.334Z,6.40
2017-08-30T11:18:57.601Z,7.37
2017-08-30T11:21:26.838Z,6.40
2017-08-30T11:23:56.113Z,7.83
2017-08-30T11:26:25.361Z,5.80
2017-08-30T11:28:54.711Z,7.17
2017-08-30T11:31:23.993Z,6.70
2017-08-30T11:33:53.279Z,6.80
2017-08-30T11:36:22.646Z,7.47
2017-08-30T11:38:51.901Z,7.50
2017-08-30T11:41:21.165Z,7.00
2017-08-30T11:43:50.701Z,7.27
2017-08-30T11:46:19.985Z,6.90
2017-08-30T11:48:49.278Z,6.30
2017-08-30T11:51:18.575Z,7.43
2017-08-30T11:53:47.826Z,7.33
2017-08-30T11:56:17.101Z,7.70
2017-08-30T11:58:46.498Z,8.03
2017-08-30T12:01:15.769Z,7.50
2017-08-30T12:03:45.042Z,8.20
2017-08-30T12:06:14.315Z,7.50
2017-08-30T12:08:43.582Z,7.13
2017-08-30T12:11:12.904Z,7.40
2017-08-30T12:13:42.159Z,7.27
2017-08-30T12:16:11.402Z,7.60
2017-08-30T12:18:40.711Z,7.10
2017-08-30T12:21:10.098Z,7.07
2017-08-30T12:23:40.024Z,8.40
2017-08-30T12:26:09.290Z,7.67
2017-08-30T12:28:38.563Z,7.83
2017-08-30T12:31:07.856Z,7.53
2017-08-30T12:33:37.127Z,7.53
2017-08-30T12:36:06.430Z,6.70
2017-08-30T12:41:38.614Z,6.80
2017-08-30T12:44:08.122Z,7.73
2017-08-30T12:46:37.447Z,6.40
2017-08-30T12:49:06.717Z,6.23
2017-08-30T12:51:35.992Z,6.70
2017-08-30T12:54:05.499Z,7.23
2017-08-30T12:56:34.767Z,6.80
2017-08-30T12:59:04.020Z,7.07
2017-08-30T13:01:33.271Z,9.40
2017-08-30T13:04:02.534Z,7.07
2017-08-30T13:06:31.807Z,7.73
2017-08-30T13:09:01.176Z,6.43
2017-08-30T13:11:30.426Z,6.83
2017-08-30T13:13:59.680Z,6.60
2017-08-30T13:16:29.282Z,7.00
2017-08-30T13:18:58.533Z,7.97
2017-08-30T13:21:27.800Z,7.07
2017-08-30T13:23:57.166Z,8.53
2017-08-30T13:26:26.474Z,6.20
2017-08-30T13:28:55.747Z,6.17
2017-08-30T13:31:25.084Z,6.60
2017-08-30T13:33:55.096Z,6.20
2017-08-30T13:36:24.383Z,6.37
2017-08-30T13:38:54.245Z,5.33
2017-08-30T13:41:23.706Z,6.53
2017-08-30T13:43:52.962Z,5.47
2017-08-30T13:46:22.227Z,5.23
2017-08-30T13:48:51.614Z,6.00
2017-08-30T13:51:20.861Z,6.50
2017-08-30T13:53:50.127Z,5.93
2017-08-30T13:56:20.207Z,5.80
2017-08-30T13:58:49.457Z,5.80
2017-08-30T14:01:18.738Z,6.93
2017-08-30T14:03:48.204Z,5.33
2017-08-30T14:06:17.466Z,6.00
2017-08-30T14:08:46.722Z,6.00
2017-08-30T14:11:15.994Z,4.70
2017-08-30T14:13:45.242Z,5.67
2017-08-30T14:16:14.598Z,5.03
2017-08-30T14:18:43.870Z,4.90
2017-08-30T14:21:13.106Z,5.67
2017-08-30T14:23:42.709Z,6.27
2017-08-30T14:26:12.029Z,5.57
2017-08-30T14:28:41.295Z,4.73
2017-08-30T14:31:10.538Z,5.00
2017-08-30T14:33:39.777Z,4.90
2017-08-30T14:36:09.183Z,5.10
2017-08-30T14:38:38.489Z,4.87
2017-08-30T14:41:07.738Z,4.63
2017-08-30T14:43:37.001Z,5.47
2017-08-30T14:46:06.298Z,4.80
2017-08-30T14:48:35.580Z,5.20
2017-08-30T14:51:04.998Z,5.40
2017-08-30T14:53:34.279Z,5.10
2017-08-30T14:56:03.591Z,4.80
2017-08-30T14:58:32.865Z,4.87
2017-08-30T15:01:02.109Z,5.30
2017-08-30T15:03:31.373Z,3.90
2017-08-30T15:06:00.678Z,4.83
2017-08-30T15:08:30.172Z,3.97
2017-08-30T15:10:59.674Z,4.50
2017-08-30T15:13:28.918Z,4.17
2017-08-30T15:15:58.230Z,4.23
2017-08-30T15:18:28.109Z,4.50
2017-08-30T15:20:57.513Z,8.80
2017-08-30T15:23:26.763Z,6.23
2017-08-30T15:25:56.140Z,5.00
2017-08-30T15:28:25.415Z,4.93
2017-08-30T15:30:54.673Z,4.17
2017-08-30T15:33:24.120Z,5.20
2017-08-30T15:35:53.389Z,4.00
2017-08-30T15:38:22.632Z,5.10
2017-08-30T15:40:52.871Z,4.07
2017-08-30T15:43:22.152Z,4.50
2017-08-30T15:45:51.422Z,4.07
2017-08-30T15:48:20.839Z,4.80
2017-08-30T15:50:50.217Z,4.30
2017-08-30T15:53:20.110Z,4.20
2017-08-30T15:55:49.404Z,4.27
2017-08-30T15:58:18.708Z,4.33
2017-08-30T16:00:47.982Z,3.73
2017-08-30T16:03:17.269Z,4.30
2017-08-30T16:05:46.508Z,3.70
2017-08-30T16:08:16.640Z,4.43
2017-08-30T16:10:45.930Z,6.40
2017-08-30T16:13:15.988Z,3.90
2017-08-30T16:15:45.261Z,5.33
2017-08-30T16:18:15.278Z,3.47
2017-08-30T16:20:44.694Z,3.70
2017-08-30T16:23:13.982Z,3.50
2017-08-30T16:25:44.969Z,3.63
2017-08-30T16:28:14.337Z,4.80
2017-08-30T16:30:43.668Z,4.13
2017-08-30T16:33:12.943Z,3.70
2017-08-30T16:35:42.258Z,2.73
2017-08-30T16:38:11.771Z,3.57
2017-08-30T16:40:40.979Z,3.20
2017-08-30T16:43:10.297Z,3.50
2017-08-30T16:45:39.545Z,4.00
2017-08-30T16:48:09.089Z,3.13
2017-08-30T16:50:38.626Z,3.73
2017-08-30T16:53:07.906Z,2.83
2017-08-30T16:55:37.243Z,3.27
2017-08-30T16:58:07.395Z,3.00
2017-08-30T17:00:36.707Z,2.73
2017-08-30T17:03:06.008Z,3.27
2017-08-30T17:05:35.409Z,3.30
2017-08-30T17:08:04.658Z,3.20
2017-08-30T17:10:33.913Z,3.47
2017-08-30T17:13:03.192Z,3.33
2017-08-30T17:15:32.563Z,2.77
2017-08-30T17:18:01.850Z,3.97
2017-08-30T17:20:31.108Z,3.10
2017-08-30T17:23:00.345Z,2.90
2017-08-30T17:25:29.716Z,2.80
2017-08-30T17:27:59.163Z,3.10
2017-08-30T17:30:28.425Z,3.37
2017-08-30T17:32:57.698Z,3.30
2017-08-30T17:35:26.957Z,3.30
2017-08-30T17:37:56.219Z,3.80
2017-08-30T17:40:25.497Z,2.97
2017-08-30T17:42:54.779Z,2.70
2017-08-30T17:45:24.065Z,3.53
2017-08-30T17:47:53.295Z,3.50
2017-08-30T17:50:22.587Z,3.30
2017-08-30T17:52:51.866Z,3.00
2017-08-30T17:55:21.114Z,2.60
2017-08-30T17:57:50.432Z,3.10
2017-08-30T18:00:19.694Z,3.00
2017-08-30T18:02:49.169Z,4.33
2017-08-30T18:05:18.440Z,3.90
2017-08-30T18:07:47.734Z,3.07
2017-08-30T18:10:17.042Z,3.63
2017-08-30T18:12:46.332Z,3.87
2017-08-30T18:15:15.597Z,3.23
2017-08-30T18:17:44.886Z,3.07
2017-08-30T18:20:14.184Z,3.47
2017-08-30T18:22:43.424Z,4.97
2017-08-30T18:25:12.718Z,2.90
2017-08-30T18:27:42.283Z,3.80
2017-08-30T18:30:11.845Z,3.30
2017-08-30T18:32:41.086Z,2.90
2017-08-30T18:35:10.344Z,3.30
2017-08-30T18:37:39.622Z,3.53
2017-08-30T18:40:08.869Z,3.10
2017-08-30T18:42:38.251Z,3.37
2017-08-30T18:45:07.575Z,3.80
2017-08-30T18:47:36.825Z,3.30
2017-08-30T18:50:06.113Z,3.67
2017-08-30T18:52:35.567Z,4.33
2017-08-30T18:55:04.826Z,3.03
2017-08-30T18:57:34.139Z,3.57
2017-08-30T19:00:03.381Z,3.23
2017-08-30T19:02:32.694Z,3.63
2017-08-30T19:05:01.954Z,4.00
2017-08-30T19:07:31.381Z,4.63
2017-08-30T19:10:01.411Z,4.00
2017-08-30T19:12:30.809Z,3.37
2017-08-30T19:15:00.171Z,3.47
2017-08-30T19:17:29.440Z,3.63
2017-08-30T19:19:58.778Z,3.03
2017-08-30T19:22:28.043Z,3.70
2017-08-30T19:24:57.408Z,3.30
2017-08-30T19:27:26.814Z,4.67
2017-08-30T19:29:56.070Z,3.57
2017-08-30T19:32:26.277Z,3.40
2017-08-30T19:34:55.597Z,3.87
2017-08-30T19:37:24.848Z,3.60
2017-08-30T19:39:54.125Z,4.23
2017-08-30T19:42:23.401Z,4.30
2017-08-30T19:44:52.646Z,3.60
2017-08-30T19:47:22.712Z,3.57
2017-08-30T19:49:51.976Z,3.80
2017-08-30T19:52:22.403Z,3.90
2017-08-30T19:54:53.462Z,3.50
2017-08-30T19:57:24.220Z,4.60
2017-08-30T19:59:53.837Z,3.70
2017-08-30T20:02:23.126Z,4.50
2017-08-30T20:04:52.446Z,3.60
2017-08-30T20:07:21.710Z,4.20
2017-08-30T20:09:51.008Z,4.10
2017-08-30T20:12:20.275Z,3.90
2017-08-30T20:14:49.808Z,4.10
2017-08-30T20:17:19.037Z,4.07
2017-08-30T20:19:48.299Z,4.37
2017-08-30T20:22:18.470Z,4.53
2017-08-30T20:24:47.763Z,4.73
2017-08-30T20:27:17.058Z,4.87
2017-08-30T20:29:49.861Z,4.13
2017-08-30T20:32:19.094Z,4.67
2017-08-30T20:34:50.401Z,4.00
2017-08-30T20:37:28.933Z,4.60
2017-08-30T20:39:58.897Z,3.83
2017-08-30T20:42:28.219Z,3.40
2017-08-30T20:44:57.481Z,3.40
2017-08-30T20:47:27.251Z,3.10
2017-08-30T20:49:57.554Z,3.40
2017-08-30T20:52:27.928Z,3.67
2017-08-30T20:54:57.206Z,3.07
2017-08-30T20:57:27.606Z,3.30
2017-08-30T20:59:57.762Z,3.30
2017-08-30T21:02:27.060Z,3.77
2017-08-30T21:04:56.342Z,4.07
2017-08-30T21:07:25.634Z,3.50
2017-08-30T21:09:54.987Z,3.67
2017-08-30T21:12:24.246Z,3.07
2017-08-30T21:14:53.525Z,2.90
2017-08-30T21:17:22.810Z,3.77
2017-08-30T21:19:52.301Z,4.90
2017-08-30T21:22:21.616Z,5.37
2017-08-30T21:24:50.952Z,6.50
2017-08-30T21:27:20.202Z,4.67
2017-08-30T21:29:49.510Z,3.27
2017-08-30T21:32:18.815Z,3.13
2017-08-30T21:34:48.361Z,3.30
2017-08-30T21:37:17.666Z,4.67
2017-08-30T21:39:46.939Z,3.67
2017-08-30T21:42:16.220Z,3.73
2017-08-30T21:44:45.485Z,3.50
2017-08-30T21:47:14.749Z,4.00
2017-08-30T21:49:44.031Z,3.90
2017-08-30T21:52:13.273Z,3.80
2017-08-30T21:54:42.540Z,4.03
2017-08-30T21:57:12.812Z,3.27
2017-08-30T21:59:42.173Z,3.80
2017-08-30T22:02:11.674Z,4.20
2017-08-30T22:04:41.041Z,4.43
2017-08-30T22:07:10.305Z,5.67
2017-08-30T22:09:39.562Z,3.17
2017-08-30T22:12:08.834Z,3.30
2017-08-30T22:14:38.098Z,3.27
2017-08-30T22:17:07.359Z,3.47
2017-08-30T22:19:36.788Z,6.10
2017-08-30T22:22:06.967Z,3.63
2017-08-30T22:24:36.214Z,2.63
2017-08-30T22:27:05.507Z,3.33
2017-08-30T22:29:34.749Z,3.53
2017-08-30T22:32:03.986Z,2.47
2017-08-30T22:34:33.250Z,3.00
2017-08-30T22:37:02.515Z,3.00
2017-08-30T22:39:32.737Z,2.60
2017-08-30T22:42:02.014Z,3.33
2017-08-30T22:44:31.272Z,2.20
2017-08-30T22:47:00.537Z,3.57
2017-08-30T22:49:29.785Z,2.50
2017-08-30T22:51:59.090Z,2.93
2017-08-30T22:54:28.329Z,2.57
2017-08-30T22:56:57.603Z,3.43
2017-08-30T22:59:26.883Z,2.87
2017-08-30T23:01:56.172Z,2.77
2017-08-30T23:04:25.495Z,2.87
2017-08-30T23:06:54.754Z,2.83
2017-08-30T23:09:24.478Z,2.37
2017-08-30T23:11:53.861Z,2.23
2017-08-30T23:14:23.286Z,2.40
2017-08-30T23:16:52.555Z,2.77
2017-08-30T23:19:21.805Z,2.50
2017-08-30T23:21:51.092Z,2.90
2017-08-30T23:24:20.360Z,2.40
2017-08-30T23:26:49.605Z,2.80
2017-08-30T23:29:19.571Z,2.93
2017-08-30T23:31:48.890Z,2.43
2017-08-30T23:34:18.179Z,2.93
2017-08-30T23:36:47.672Z,2.63
2017-08-30T23:39:17.068Z,2.67
2017-08-30T23:41:46.326Z,3.00
2017-08-30T23:44:15.654Z,3.93
2017-08-30T23:46:45.075Z,2.53
2017-08-30T23:49:14.399Z,2.33
2017-08-30T23:51:43.663Z,2.20
2017-08-30T23:54:12.970Z,2.50
2017-08-30T23:56:42.274Z,3.20
2017-08-30T23:59:11.514Z,2.90
